createdAt,value
2023-01-29T00:12:16.069Z,10.88
2023-01-29T00:14:55.158Z,13.10
2023-01-29T00:17:26.041Z,11.48
2023-01-29T00:19:59.234Z,13.80
2023-01-29T00:22:31.140Z,13.13
2023-01-29T00:25:01.491Z,15.57
2023-01-29T00:27:35.863Z,13.63
2023-01-29T08:05:54.399Z,7.10
2023-01-29T08:08:22.104Z,6.10
2023-01-29T08:10:49.269Z,6.22
2023-01-29T08:13:16.245Z,7.18
2023-01-29T08:15:45.494Z,7.25
2023-01-29T08:18:13.786Z,7.22
2023-01-29T08:20:46.057Z,7.05
2023-01-29T08:23:39.387Z,6.20
2023-01-29T08:26:09.112Z,6.55
2023-01-29T08:28:38.671Z,8.05
2023-01-29T08:31:14.430Z,7.18
2023-01-29T08:33:41.673Z,6.05
2023-01-29T08:36:09.652Z,9.15
2023-01-29T08:38:38.016Z,7.22
2023-01-29T08:41:05.876Z,8.05
2023-01-29T08:43:33.237Z,6.57
2023-01-29T08:46:00.226Z,9.30
2023-01-29T08:48:27.481Z,7.10
2023-01-29T08:50:58.574Z,8.05
2023-01-29T08:57:31.890Z,7.43
2023-01-29T09:00:13.781Z,7.35
2023-01-29T09:02:43.312Z,7.65
2023-01-29T09:05:10.724Z,6.53
2023-01-29T09:07:37.770Z,6.68
2023-01-29T09:34:17.507Z,7.85
2023-01-29T09:36:44.753Z,7.93
2023-01-29T09:39:11.773Z,5.95
2023-01-29T09:41:51.717Z,7.82
2023-01-29T09:44:37.545Z,7.93
2023-01-29T10:01:53.001Z,7.63
2023-01-29T10:04:40.299Z,7.25
2023-01-29T10:13:19.028Z,7.55
2023-01-29T10:16:16.463Z,7.43
2023-01-29T10:19:07.175Z,7.80
2023-01-29T10:22:00.265Z,7.72
2023-01-29T10:25:10.994Z,6.63
2023-01-29T14:00:52.334Z,5.72
2023-01-29T14:03:39.937Z,6.72
2023-01-29T14:10:27.143Z,6.15
2023-01-29T14:13:24.095Z,4.90
2023-01-29T14:16:27.550Z,5.35
2023-01-29T14:19:01.448Z,5.10
2023-01-29T14:30:03.156Z,5.43
2023-01-29T14:32:34.709Z,7.18
2023-01-29T14:35:21.309Z,5.53
2023-01-29T14:37:55.294Z,6.28
2023-01-29T14:40:31.233Z,5.35
2023-01-29T14:43:23.752Z,5.47
2023-01-29T14:46:06.793Z,5.60
2023-01-29T14:48:58.319Z,5.65
2023-01-29T14:51:36.763Z,4.85
2023-01-29T15:09:42.813Z,5.28
2023-01-29T15:25:49.714Z,4.63
2023-01-29T15:28:47.110Z,4.82
2023-01-29T15:34:41.146Z,6.80
2023-01-29T18:43:04.613Z,6.80
2023-01-29T18:45:32.067Z,7.28
2023-01-29T18:54:02.858Z,7.38
2023-01-29T18:56:36.704Z,9.48
2023-01-29T18:59:05.717Z,7.38
2023-01-29T19:01:33.913Z,7.13
2023-01-29T19:04:01.999Z,8.27
2023-01-29T19:06:29.164Z,6.57
2023-01-29T19:08:56.292Z,8.35
2023-01-29T19:11:23.324Z,8.45
2023-01-29T19:13:51.036Z,10.32
2023-01-29T19:22:02.409Z,10.38
2023-01-29T19:24:30.008Z,7.88
2023-01-29T19:26:57.415Z,9.00
2023-01-29T19:29:27.744Z,10.02
2023-01-29T19:31:54.959Z,8.98
2023-01-29T20:08:47.073Z,11.20
2023-01-29T20:11:25.654Z,11.98
2023-01-29T20:13:53.651Z,11.90
2023-01-29T20:16:22.378Z,12.13
2023-01-29T20:21:49.291Z,13.20
2023-01-29T20:24:16.885Z,12.00
2023-01-29T20:26:44.859Z,12.77
2023-01-29T20:35:10.499Z,13.65
2023-01-29T20:37:37.820Z,11.90
2023-01-29T20:40:06.714Z,14.40
2023-01-29T20:42:34.406Z,12.82
2023-01-29T20:45:04.414Z,12.93
2023-01-29T22:07:49.940Z,14.27
2023-01-29T22:19:50.168Z,14.32
2023-01-29T22:22:18.385Z,16.95
2023-01-29T22:24:46.809Z,15.32
2023-01-29T22:27:15.545Z,15.35
2023-01-29T22:29:42.840Z,17.13
2023-01-29T22:32:11.431Z,15.13
2023-01-29T22:34:40.256Z,16.23
2023-01-29T22:37:07.883Z,14.93
2023-01-29T22:39:34.929Z,15.38
2023-01-29T22:42:02.060Z,14.35
2023-01-29T22:44:36.622Z,14.20
2023-01-29T22:53:02.812Z,17.15
2023-01-29T22:55:29.918Z,14.68
2023-01-29T22:58:05.788Z,14.73
2023-01-29T23:00:33.024Z,16.08
2023-01-29T23:03:09.973Z,14.95
2023-01-29T23:05:36.940Z,14.98
2023-01-29T23:08:03.888Z,15.68
2023-01-29T23:10:31.063Z,14.63
2023-01-29T23:13:09.438Z,15.65
2023-01-29T23:15:38.592Z,16.58
2023-01-29T23:18:07.927Z,15.55
2023-01-29T23:20:35.447Z,15.13
2023-01-29T23:23:02.521Z,16.13
2023-01-29T23:25:48.319Z,15.98
2023-01-29T23:30:56.410Z,14.43
2023-01-29T23:33:23.586Z,14.80
2023-01-29T23:35:50.534Z,14.85
2023-01-29T23:38:17.511Z,15.38
2023-01-29T23:41:09.165Z,17.17
2023-01-29T23:47:16.584Z,15.32
2023-01-29T23:50:15.641Z,17.20
2023-01-29T23:53:36.257Z,16.17
2023-01-29T23:59:49.266Z,16.50
